sensor_id;sensor_type;location;lat;lon;timestamp;P1;durP1;ratioP1;P2;durP2;ratioP2
50781;SDS011;36749;37.428;-121.972;2022-08-04T00:00:25;7.72;;;4.05;;
50781;SDS011;36749;37.428;-121.972;2022-08-04T00:05:40;14.48;;;4.30;;
50781;SDS011;36749;37.428;-121.972;2022-08-04T00:11:03;7.72;;;3.70;;
50781;SDS011;36749;37.428;-121.972;2022-08-04T00:13:34;14.60;;;3.60;;
50781;SDS011;36749;37.428;-121.972;2022-08-04T00:16:04;8.70;;;3.83;;
50781;SDS011;36749;37.428;-121.972;2022-08-04T00:18:33;4.78;;;3.50;;
50781;SDS011;36749;37.428;-121.972;2022-08-04T00:21:03;8.88;;;4.07;;
50781;SDS011;36749;37.428;-121.972;2022-08-04T00:23:30;9.77;;;3.88;;
50781;SDS011;36749;37.428;-121.972;2022-08-04T00:25:59;7.68;;;3.53;;
50781;SDS011;36749;37.428;-121.972;2022-08-04T00:28:26;12.73;;;3.45;;
50781;SDS011;36749;37.428;-121.972;2022-08-04T00:30:53;9.45;;;4.22;;
50781;SDS011;36749;37.428;-121.972;2022-08-04T00:33:20;7.18;;;3.42;;
50781;SDS011;36749;37.428;-121.972;2022-08-04T00:35:46;7.07;;;3.80;;
50781;SDS011;36749;37.428;-121.972;2022-08-04T00:38:14;7.22;;;3.53;;
50781;SDS011;36749;37.428;-121.972;2022-08-04T00:40:49;9.15;;;3.50;;
50781;SDS011;36749;37.428;-121.972;2022-08-04T00:43:20;9.93;;;3.80;;
50781;SDS011;36749;37.428;-121.972;2022-08-04T00:45:58;7.35;;;3.85;;
50781;SDS011;36749;37.428;-121.972;2022-08-04T00:59:50;5.65;;;3.67;;
50781;SDS011;36749;37.428;-121.972;2022-08-04T01:02:24;7.07;;;4.05;;
50781;SDS011;36749;37.428;-121.972;2022-08-04T01:10:09;7.13;;;3.92;;
50781;SDS011;36749;37.428;-121.972;2022-08-04T01:13:19;5.10;;;3.20;;
50781;SDS011;36749;37.428;-121.972;2022-08-04T01:16:04;6.85;;;3.30;;
50781;SDS011;36749;37.428;-121.972;2022-08-04T01:18:44;8.18;;;3.58;;
50781;SDS011;36749;37.428;-121.972;2022-08-04T01:21:29;7.00;;;3.58;;
50781;SDS011;36749;37.428;-121.972;2022-08-04T01:29:39;7.35;;;4.25;;
50781;SDS011;36749;37.428;-121.972;2022-08-04T01:32:31;6.50;;;3.80;;
50781;SDS011;36749;37.428;-121.972;2022-08-04T01:35:27;5.63;;;4.10;;
50781;SDS011;36749;37.428;-121.972;2022-08-04T01:37:57;6.60;;;4.30;;
50781;SDS011;36749;37.428;-121.972;2022-08-04T01:40:40;8.18;;;3.70;;
50781;SDS011;36749;37.428;-121.972;2022-08-04T01:43:07;9.38;;;4.55;;
50781;SDS011;36749;37.428;-121.972;2022-08-04T01:45:35;6.40;;;3.90;;
50781;SDS011;36749;37.428;-121.972;2022-08-04T01:48:02;8.60;;;3.95;;
50781;SDS011;36749;37.428;-121.972;2022-08-04T01:50:32;7.03;;;4.53;;
50781;SDS011;36749;37.428;-121.972;2022-08-04T01:52:59;7.65;;;4.45;;
50781;SDS011;36749;37.428;-121.972;2022-08-04T01:55:28;6.63;;;4.63;;
50781;SDS011;36749;37.428;-121.972;2022-08-04T01:57:55;8.57;;;4.30;;
50781;SDS011;36749;37.428;-121.972;2022-08-04T02:00:25;9.45;;;4.50;;
50781;SDS011;36749;37.428;-121.972;2022-08-04T02:02:54;9.40;;;4.70;;
50781;SDS011;36749;37.428;-121.972;2022-08-04T02:05:21;10.00;;;5.32;;
50781;SDS011;36749;37.428;-121.972;2022-08-04T02:08:11;11.68;;;5.05;;
50781;SDS011;36749;37.428;-121.972;2022-08-04T02:15:57;9.77;;;5.22;;
50781;SDS011;36749;37.428;-121.972;2022-08-04T02:18:31;8.63;;;4.90;;
50781;SDS011;36749;37.428;-121.972;2022-08-04T02:20:59;7.72;;;4.63;;
50781;SDS011;36749;37.428;-121.972;2022-08-04T02:23:40;12.95;;;4.97;;
50781;SDS011;36749;37.428;-121.972;2022-08-04T02:26:13;9.10;;;4.38;;
50781;SDS011;36749;37.428;-121.972;2022-08-04T02:31:37;11.02;;;4.43;;
50781;SDS011;36749;37.428;-121.972;2022-08-04T02:34:24;10.13;;;4.53;;
50781;SDS011;36749;37.428;-121.972;2022-08-04T02:36:54;11.15;;;4.35;;
50781;SDS011;36749;37.428;-121.972;2022-08-04T02:39:20;18.92;;;5.55;;
50781;SDS011;36749;37.428;-121.972;2022-08-04T02:41:48;12.20;;;4.22;;
50781;SDS011;36749;37.428;-121.972;2022-08-04T02:44:19;12.77;;;4.90;;
50781;SDS011;36749;37.428;-121.972;2022-08-04T02:46:52;16.10;;;4.82;;
50781;SDS011;36749;37.428;-121.972;2022-08-04T02:49:22;12.98;;;5.55;;
50781;SDS011;36749;37.428;-121.972;2022-08-04T02:51:49;8.70;;;4.70;;
50781;SDS011;36749;37.428;-121.972;2022-08-04T02:54:38;9.63;;;4.57;;
50781;SDS011;36749;37.428;-121.972;2022-08-04T02:57:07;10.68;;;4.47;;
50781;SDS011;36749;37.428;-121.972;2022-08-04T02:59:49;11.63;;;4.85;;
50781;SDS011;36749;37.428;-121.972;2022-08-04T03:02:33;9.77;;;4.70;;
50781;SDS011;36749;37.428;-121.972;2022-08-04T03:05:02;11.98;;;4.68;;
50781;SDS011;36749;37.428;-121.972;2022-08-04T03:21:47;13.38;;;5.18;;
50781;SDS011;36749;37.428;-121.972;2022-08-04T03:33:23;11.00;;;5.50;;
50781;SDS011;36749;37.428;-121.972;2022-08-04T03:50:19;11.80;;;5.47;;
50781;SDS011;36749;37.428;-121.972;2022-08-04T04:10:10;11.43;;;5.88;;
50781;SDS011;36749;37.428;-121.972;2022-08-04T04:13:06;12.77;;;5.20;;
50781;SDS011;36749;37.428;-121.972;2022-08-04T04:16:17;11.85;;;5.15;;
50781;SDS011;36749;37.428;-121.972;2022-08-04T04:22:05;10.18;;;5.70;;
50781;SDS011;36749;37.428;-121.972;2022-08-04T04:24:48;12.18;;;5.47;;
50781;SDS011;36749;37.428;-121.972;2022-08-04T04:30:34;14.75;;;5.63;;
50781;SDS011;36749;37.428;-121.972;2022-08-04T04:38:33;10.38;;;5.30;;
50781;SDS011;36749;37.428;-121.972;2022-08-04T04:41:04;11.57;;;5.32;;
50781;SDS011;36749;37.428;-121.972;2022-08-04T04:49:24;13.07;;;5.85;;
50781;SDS011;36749;37.428;-121.972;2022-08-04T04:52:25;12.67;;;6.47;;
50781;SDS011;36749;37.428;-121.972;2022-08-04T04:57:58;12.32;;;5.35;;
50781;SDS011;36749;37.428;-121.972;2022-08-04T05:00:32;9.70;;;5.28;;
50781;SDS011;36749;37.428;-121.972;2022-08-04T05:03:25;14.93;;;6.70;;
50781;SDS011;36749;37.428;-121.972;2022-08-04T05:12:04;13.30;;;5.60;;
50781;SDS011;36749;37.428;-121.972;2022-08-04T05:14:28;9.27;;;5.75;;
50781;SDS011;36749;37.428;-121.972;2022-08-04T05:17:03;12.05;;;5.65;;
50781;SDS011;36749;37.428;-121.972;2022-08-04T05:22:30;13.15;;;5.88;;
50781;SDS011;36749;37.428;-121.972;2022-08-04T05:25:05;14.48;;;5.95;;
50781;SDS011;36749;37.428;-121.972;2022-08-04T05:27:34;12.75;;;5.78;;
50781;SDS011;36749;37.428;-121.972;2022-08-04T05:30:04;11.27;;;5.55;;
50781;SDS011;36749;37.428;-121.972;2022-08-04T05:33:06;10.38;;;6.00;;
50781;SDS011;36749;37.428;-121.972;2022-08-04T05:35:30;14.48;;;6.15;;
50781;SDS011;36749;37.428;-121.972;2022-08-04T05:38:00;12.02;;;5.78;;
50781;SDS011;36749;37.428;-121.972;2022-08-04T05:40:27;12.38;;;5.53;;
50781;SDS011;36749;37.428;-121.972;2022-08-04T05:42:54;14.98;;;6.05;;
50781;SDS011;36749;37.428;-121.972;2022-08-04T05:45:21;11.32;;;5.88;;
50781;SDS011;36749;37.428;-121.972;2022-08-04T05:47:49;15.05;;;5.78;;
50781;SDS011;36749;37.428;-121.972;2022-08-04T05:50:16;14.00;;;5.88;;
50781;SDS011;36749;37.428;-121.972;2022-08-04T05:52:43;13.85;;;6.57;;
50781;SDS011;36749;37.428;-121.972;2022-08-04T05:55:10;14.52;;;7.50;;
50781;SDS011;36749;37.428;-121.972;2022-08-04T05:57:40;10.63;;;5.85;;
50781;SDS011;36749;37.428;-121.972;2022-08-04T06:00:07;14.10;;;5.97;;
50781;SDS011;36749;37.428;-121.972;2022-08-04T06:02:34;13.15;;;6.07;;
50781;SDS011;36749;37.428;-121.972;2022-08-04T06:05:09;14.75;;;6.50;;
50781;SDS011;36749;37.428;-121.972;2022-08-04T06:07:39;13.45;;;7.25;;
50781;SDS011;36749;37.428;-121.972;2022-08-04T06:10:06;14.77;;;6.45;;
50781;SDS011;36749;37.428;-121.972;2022-08-04T06:12:37;15.55;;;7.47;;
50781;SDS011;36749;37.428;-121.972;2022-08-04T06:15:07;13.48;;;6.10;;
50781;SDS011;36749;37.428;-121.972;2022-08-04T06:17:54;14.30;;;6.72;;
50781;SDS011;36749;37.428;-121.972;2022-08-04T06:20:28;13.88;;;6.85;;
50781;SDS011;36749;37.428;-121.972;2022-08-04T06:22:59;12.95;;;6.50;;
50781;SDS011;36749;37.428;-121.972;2022-08-04T06:25:30;13.53;;;6.50;;
50781;SDS011;36749;37.428;-121.972;2022-08-04T06:27:57;15.52;;;6.75;;
50781;SDS011;36749;37.428;-121.972;2022-08-04T06:30:25;13.55;;;7.03;;
50781;SDS011;36749;37.428;-121.972;2022-08-04T06:32:52;14.95;;;7.40;;
50781;SDS011;36749;37.428;-121.972;2022-08-04T06:35:22;14.35;;;6.82;;
50781;SDS011;36749;37.428;-121.972;2022-08-04T06:37:50;12.80;;;6.47;;
50781;SDS011;36749;37.428;-121.972;2022-08-04T06:40:18;14.13;;;6.88;;
50781;SDS011;36749;37.428;-121.972;2022-08-04T06:42:45;13.77;;;6.47;;
50781;SDS011;36749;37.428;-121.972;2022-08-04T06:45:13;14.18;;;6.82;;
50781;SDS011;36749;37.428;-121.972;2022-08-04T06:47:40;16.00;;;6.63;;
50781;SDS011;36749;37.428;-121.972;2022-08-04T06:50:08;15.32;;;7.03;;
50781;SDS011;36749;37.428;-121.972;2022-08-04T06:52:38;12.95;;;7.15;;
50781;SDS011;36749;37.428;-121.972;2022-08-04T06:55:05;18.00;;;8.02;;
50781;SDS011;36749;37.428;-121.972;2022-08-04T06:57:33;14.05;;;6.63;;
50781;SDS011;36749;37.428;-121.972;2022-08-04T07:00:01;17.15;;;7.40;;
50781;SDS011;36749;37.428;-121.972;2022-08-04T07:02:41;16.08;;;7.18;;
50781;SDS011;36749;37.428;-121.972;2022-08-04T07:05:09;15.57;;;7.15;;
50781;SDS011;36749;37.428;-121.972;2022-08-04T07:07:36;14.07;;;7.22;;
50781;SDS011;36749;37.428;-121.972;2022-08-04T07:10:03;15.50;;;6.60;;
50781;SDS011;36749;37.428;-121.972;2022-08-04T07:12:30;17.20;;;6.65;;
50781;SDS011;36749;37.428;-121.972;2022-08-04T07:14:57;12.65;;;6.50;;
50781;SDS011;36749;37.428;-121.972;2022-08-04T07:17:24;14.18;;;6.63;;
50781;SDS011;36749;37.428;-121.972;2022-08-04T07:19:50;18.30;;;7.55;;
50781;SDS011;36749;37.428;-121.972;2022-08-04T07:22:19;18.83;;;6.85;;
50781;SDS011;36749;37.428;-121.972;2022-08-04T07:24:45;16.65;;;7.00;;
50781;SDS011;36749;37.428;-121.972;2022-08-04T07:27:18;15.52;;;6.70;;
50781;SDS011;36749;37.428;-121.972;2022-08-04T07:29:44;16.95;;;6.93;;
50781;SDS011;36749;37.428;-121.972;2022-08-04T07:32:11;13.30;;;6.07;;
50781;SDS011;36749;37.428;-121.972;2022-08-04T07:34:38;16.05;;;7.15;;
50781;SDS011;36749;37.428;-121.972;2022-08-04T07:37:08;21.23;;;7.55;;
50781;SDS011;36749;37.428;-121.972;2022-08-04T07:39:35;18.02;;;7.10;;
50781;SDS011;36749;37.428;-121.972;2022-08-04T07:42:01;17.05;;;7.25;;
50781;SDS011;36749;37.428;-121.972;2022-08-04T07:44:32;13.65;;;7.15;;
50781;SDS011;36749;37.428;-121.972;2022-08-04T07:47:04;13.70;;;7.30;;
50781;SDS011;36749;37.428;-121.972;2022-08-04T07:49:31;17.30;;;7.20;;
50781;SDS011;36749;37.428;-121.972;2022-08-04T07:51:58;17.40;;;7.20;;
50781;SDS011;36749;37.428;-121.972;2022-08-04T07:54:25;14.77;;;7.55;;
50781;SDS011;36749;37.428;-121.972;2022-08-04T07:56:51;16.67;;;7.10;;
50781;SDS011;36749;37.428;-121.972;2022-08-04T07:59:18;16.08;;;7.05;;
50781;SDS011;36749;37.428;-121.972;2022-08-04T08:01:44;16.90;;;8.05;;
50781;SDS011;36749;37.428;-121.972;2022-08-04T08:04:12;15.32;;;7.18;;
50781;SDS011;36749;37.428;-121.972;2022-08-04T08:06:39;18.42;;;8.80;;
50781;SDS011;36749;37.428;-121.972;2022-08-04T08:09:07;19.23;;;8.18;;
50781;SDS011;36749;37.428;-121.972;2022-08-04T08:11:44;17.17;;;7.15;;
50781;SDS011;36749;37.428;-121.972;2022-08-04T08:14:14;17.48;;;7.03;;
50781;SDS011;36749;37.428;-121.972;2022-08-04T08:17:01;14.82;;;7.85;;
50781;SDS011;36749;37.428;-121.972;2022-08-04T08:19:34;18.20;;;8.23;;
50781;SDS011;36749;37.428;-121.972;2022-08-04T08:22:00;17.75;;;8.23;;
50781;SDS011;36749;37.428;-121.972;2022-08-04T08:24:28;15.82;;;7.93;;
50781;SDS011;36749;37.428;-121.972;2022-08-04T08:26:55;19.67;;;8.27;;
50781;SDS011;36749;37.428;-121.972;2022-08-04T08:29:21;16.63;;;8.38;;
50781;SDS011;36749;37.428;-121.972;2022-08-04T08:31:48;20.27;;;8.25;;
50781;SDS011;36749;37.428;-121.972;2022-08-04T08:34:14;21.60;;;7.68;;
50781;SDS011;36749;37.428;-121.972;2022-08-04T08:36:42;23.65;;;8.43;;
50781;SDS011;36749;37.428;-121.972;2022-08-04T08:39:14;17.63;;;7.78;;
50781;SDS011;36749;37.428;-121.972;2022-08-04T08:52:57;15.25;;;8.05;;
50781;SDS011;36749;37.428;-121.972;2022-08-04T09:06:38;20.95;;;8.02;;
50781;SDS011;36749;37.428;-121.972;2022-08-04T09:09:27;24.80;;;9.40;;
50781;SDS011;36749;37.428;-121.972;2022-08-04T09:14:36;22.05;;;9.38;;
50781;SDS011;36749;37.428;-121.972;2022-08-04T09:17:44;19.45;;;8.68;;
50781;SDS011;36749;37.428;-121.972;2022-08-04T09:20:24;20.05;;;9.57;;
50781;SDS011;36749;37.428;-121.972;2022-08-04T09:26:03;19.40;;;8.50;;
50781;SDS011;36749;37.428;-121.972;2022-08-04T09:28:45;23.08;;;9.15;;
50781;SDS011;36749;37.428;-121.972;2022-08-04T09:31:16;24.00;;;9.85;;
50781;SDS011;36749;37.428;-121.972;2022-08-04T09:36:36;22.60;;;8.77;;
50781;SDS011;36749;37.428;-121.972;2022-08-04T09:50:31;21.08;;;8.90;;
50781;SDS011;36749;37.428;-121.972;2022-08-04T09:56:01;26.08;;;8.93;;
50781;SDS011;36749;37.428;-121.972;2022-08-04T09:58:49;20.00;;;8.25;;
50781;SDS011;36749;37.428;-121.972;2022-08-04T10:01:19;22.40;;;8.15;;
50781;SDS011;36749;37.428;-121.972;2022-08-04T10:04:08;19.98;;;8.52;;
50781;SDS011;36749;37.428;-121.972;2022-08-04T10:06:44;19.02;;;9.02;;
50781;SDS011;36749;37.428;-121.972;2022-08-04T10:14:52;21.23;;;8.55;;
50781;SDS011;36749;37.428;-121.972;2022-08-04T10:17:30;25.75;;;8.98;;
50781;SDS011;36749;37.428;-121.972;2022-08-04T10:31:53;21.10;;;9.02;;
50781;SDS011;36749;37.428;-121.972;2022-08-04T10:34:25;20.90;;;7.35;;
50781;SDS011;36749;37.428;-121.972;2022-08-04T10:36:56;22.90;;;8.57;;
50781;SDS011;36749;37.428;-121.972;2022-08-04T10:39:54;25.60;;;8.48;;
50781;SDS011;36749;37.428;-121.972;2022-08-04T10:42:46;25.30;;;8.30;;
50781;SDS011;36749;37.428;-121.972;2022-08-04T10:45:21;17.85;;;8.35;;
50781;SDS011;36749;37.428;-121.972;2022-08-04T10:48:00;24.08;;;8.60;;
50781;SDS011;36749;37.428;-121.972;2022-08-04T10:50:30;27.00;;;7.95;;
50781;SDS011;36749;37.428;-121.972;2022-08-04T10:53:08;18.40;;;8.10;;
50781;SDS011;36749;37.428;-121.972;2022-08-04T10:55:41;20.58;;;8.02;;
50781;SDS011;36749;37.428;-121.972;2022-08-04T10:58:18;20.27;;;8.45;;
50781;SDS011;36749;37.428;-121.972;2022-08-04T11:00:46;17.67;;;7.80;;
50781;SDS011;36749;37.428;-121.972;2022-08-04T11:03:19;19.40;;;8.10;;
50781;SDS011;36749;37.428;-121.972;2022-08-04T11:05:56;24.55;;;8.30;;
50781;SDS011;36749;37.428;-121.972;2022-08-04T11:08:44;20.35;;;7.88;;
50781;SDS011;36749;37.428;-121.972;2022-08-04T11:14:15;26.15;;;8.80;;
50781;SDS011;36749;37.428;-121.972;2022-08-04T11:16:51;21.27;;;8.90;;
50781;SDS011;36749;37.428;-121.972;2022-08-04T11:27:28;23.10;;;8.48;;
50781;SDS011;36749;37.428;-121.972;2022-08-04T11:30:18;21.17;;;8.60;;
50781;SDS011;36749;37.428;-121.972;2022-08-04T11:32:49;26.02;;;8.15;;
50781;SDS011;36749;37.428;-121.972;2022-08-04T11:38:11;24.15;;;7.72;;
50781;SDS011;36749;37.428;-121.972;2022-08-04T11:41:09;22.98;;;8.25;;
50781;SDS011;36749;37.428;-121.972;2022-08-04T11:46:14;25.27;;;8.35;;
50781;SDS011;36749;37.428;-121.972;2022-08-04T11:48:48;23.92;;;7.05;;
50781;SDS011;36749;37.428;-121.972;2022-08-04T11:51:21;25.83;;;8.05;;
50781;SDS011;36749;37.428;-121.972;2022-08-04T11:53:47;24.10;;;9.35;;
50781;SDS011;36749;37.428;-121.972;2022-08-04T11:56:15;18.70;;;7.97;;
50781;SDS011;36749;37.428;-121.972;2022-08-04T11:58:42;24.10;;;8.82;;
50781;SDS011;36749;37.428;-121.972;2022-08-04T12:06:21;23.88;;;8.27;;
50781;SDS011;36749;37.428;-121.972;2022-08-04T12:09:11;22.73;;;8.73;;
50781;SDS011;36749;37.428;-121.972;2022-08-04T12:17:25;19.98;;;7.63;;
50781;SDS011;36749;37.428;-121.972;2022-08-04T12:19:55;23.50;;;7.30;;
50781;SDS011;36749;37.428;-121.972;2022-08-04T12:22:23;20.52;;;8.05;;
50781;SDS011;36749;37.428;-121.972;2022-08-04T12:27:41;22.77;;;7.30;;
50781;SDS011;36749;37.428;-121.972;2022-08-04T12:30:24;22.33;;;8.50;;
50781;SDS011;36749;37.428;-121.972;2022-08-04T12:33:03;19.15;;;7.70;;
50781;SDS011;36749;37.428;-121.972;2022-08-04T12:35:39;24.17;;;7.70;;
50781;SDS011;36749;37.428;-121.972;2022-08-04T12:38:17;19.60;;;7.93;;
50781;SDS011;36749;37.428;-121.972;2022-08-04T12:40:47;22.70;;;7.70;;
50781;SDS011;36749;37.428;-121.972;2022-08-04T12:43:37;19.48;;;7.25;;
50781;SDS011;36749;37.428;-121.972;2022-08-04T12:46:10;22.75;;;7.88;;
50781;SDS011;36749;37.428;-121.972;2022-08-04T12:48:38;18.45;;;7.45;;
50781;SDS011;36749;37.428;-121.972;2022-08-04T12:51:06;24.98;;;7.75;;
50781;SDS011;36749;37.428;-121.972;2022-08-04T12:53:36;19.40;;;7.57;;
50781;SDS011;36749;37.428;-121.972;2022-08-04T12:56:04;23.13;;;7.60;;
50781;SDS011;36749;37.428;-121.972;2022-08-04T12:58:32;27.65;;;8.48;;
50781;SDS011;36749;37.428;-121.972;2022-08-04T13:01:04;19.67;;;6.53;;
50781;SDS011;36749;37.428;-121.972;2022-08-04T13:03:46;24.35;;;8.48;;
50781;SDS011;36749;37.428;-121.972;2022-08-04T13:06:21;20.25;;;8.50;;
50781;SDS011;36749;37.428;-121.972;2022-08-04T13:08:52;20.08;;;7.72;;
50781;SDS011;36749;37.428;-121.972;2022-08-04T13:11:20;27.58;;;8.43;;
50781;SDS011;36749;37.428;-121.972;2022-08-04T13:13:49;24.23;;;7.90;;
50781;SDS011;36749;37.428;-121.972;2022-08-04T13:16:27;22.63;;;8.23;;
50781;SDS011;36749;37.428;-121.972;2022-08-04T13:18:57;26.50;;;10.27;;
50781;SDS011;36749;37.428;-121.972;2022-08-04T13:21:24;20.50;;;7.60;;
50781;SDS011;36749;37.428;-121.972;2022-08-04T13:23:57;26.90;;;8.23;;
50781;SDS011;36749;37.428;-121.972;2022-08-04T13:26:27;26.65;;;8.93;;
50781;SDS011;36749;37.428;-121.972;2022-08-04T13:28:54;28.15;;;8.57;;
50781;SDS011;36749;37.428;-121.972;2022-08-04T13:31:25;24.13;;;8.23;;
50781;SDS011;36749;37.428;-121.972;2022-08-04T13:34:00;24.73;;;8.52;;
50781;SDS011;36749;37.428;-121.972;2022-08-04T13:36:32;25.33;;;9.65;;
50781;SDS011;36749;37.428;-121.972;2022-08-04T13:39:05;26.48;;;8.93;;
50781;SDS011;36749;37.428;-121.972;2022-08-04T13:41:34;26.98;;;8.45;;
50781;SDS011;36749;37.428;-121.972;2022-08-04T13:44:02;24.90;;;8.90;;
50781;SDS011;36749;37.428;-121.972;2022-08-04T13:46:44;22.05;;;8.63;;
50781;SDS011;36749;37.428;-121.972;2022-08-04T13:49:14;22.42;;;7.60;;
50781;SDS011;36749;37.428;-121.972;2022-08-04T13:51:53;30.90;;;9.82;;
50781;SDS011;36749;37.428;-121.972;2022-08-04T13:54:21;29.08;;;9.10;;
50781;SDS011;36749;37.428;-121.972;2022-08-04T13:56:49;30.60;;;10.95;;
50781;SDS011;36749;37.428;-121.972;2022-08-04T13:59:18;27.48;;;8.77;;
50781;SDS011;36749;37.428;-121.972;2022-08-04T14:01:55;19.75;;;8.20;;
50781;SDS011;36749;37.428;-121.972;2022-08-04T14:04:25;28.00;;;9.10;;
50781;SDS011;36749;37.428;-121.972;2022-08-04T14:06:54;31.90;;;10.48;;
50781;SDS011;36749;37.428;-121.972;2022-08-04T14:09:28;48.67;;;11.50;;
50781;SDS011;36749;37.428;-121.972;2022-08-04T14:12:03;80.63;;;17.77;;
50781;SDS011;36749;37.428;-121.972;2022-08-04T14:14:35;60.10;;;15.75;;
50781;SDS011;36749;37.428;-121.972;2022-08-04T14:19:48;31.92;;;9.60;;
50781;SDS011;36749;37.428;-121.972;2022-08-04T14:22:34;43.00;;;11.10;;
50781;SDS011;36749;37.428;-121.972;2022-08-04T14:25:05;30.33;;;9.13;;
50781;SDS011;36749;37.428;-121.972;2022-08-04T14:30:30;28.83;;;8.45;;
50781;SDS011;36749;37.428;-121.972;2022-08-04T14:35:28;35.05;;;8.73;;
50781;SDS011;36749;37.428;-121.972;2022-08-04T14:38:00;26.77;;;9.13;;
50781;SDS011;36749;37.428;-121.972;2022-08-04T14:40:29;33.60;;;9.98;;
50781;SDS011;36749;37.428;-121.972;2022-08-04T14:42:58;69.28;;;15.88;;
50781;SDS011;36749;37.428;-121.972;2022-08-04T14:45:38;95.28;;;20.33;;
50781;SDS011;36749;37.428;-121.972;2022-08-04T14:48:08;30.52;;;8.38;;
50781;SDS011;36749;37.428;-121.972;2022-08-04T14:50:42;31.80;;;8.48;;
50781;SDS011;36749;37.428;-121.972;2022-08-04T14:53:16;20.35;;;8.70;;
50781;SDS011;36749;37.428;-121.972;2022-08-04T14:55:47;21.92;;;9.18;;
50781;SDS011;36749;37.428;-121.972;2022-08-04T14:58:20;24.90;;;7.80;;
50781;SDS011;36749;37.428;-121.972;2022-08-04T15:00:55;23.20;;;7.93;;
50781;SDS011;36749;37.428;-121.972;2022-08-04T15:03:22;26.88;;;7.88;;
50781;SDS011;36749;37.428;-121.972;2022-08-04T15:05:49;22.35;;;7.68;;
50781;SDS011;36749;37.428;-121.972;2022-08-04T15:08:15;17.45;;;7.00;;
50781;SDS011;36749;37.428;-121.972;2022-08-04T15:10:42;19.15;;;7.15;;
50781;SDS011;36749;37.428;-121.972;2022-08-04T15:13:09;19.10;;;8.00;;
50781;SDS011;36749;37.428;-121.972;2022-08-04T15:15:38;19.30;;;6.47;;
50781;SDS011;36749;37.428;-121.972;2022-08-04T15:18:09;24.33;;;7.32;;
50781;SDS011;36749;37.428;-121.972;2022-08-04T15:20:36;21.17;;;8.15;;
50781;SDS011;36749;37.428;-121.972;2022-08-04T15:23:08;25.43;;;8.13;;
50781;SDS011;36749;37.428;-121.972;2022-08-04T15:25:36;16.60;;;6.95;;
50781;SDS011;36749;37.428;-121.972;2022-08-04T15:28:16;18.17;;;7.43;;
50781;SDS011;36749;37.428;-121.972;2022-08-04T15:30:44;25.60;;;7.93;;
50781;SDS011;36749;37.428;-121.972;2022-08-04T15:33:11;24.60;;;8.57;;
50781;SDS011;36749;37.428;-121.972;2022-08-04T15:35:39;25.38;;;8.15;;
50781;SDS011;36749;37.428;-121.972;2022-08-04T15:38:08;21.75;;;7.97;;
50781;SDS011;36749;37.428;-121.972;2022-08-04T15:40:55;22.02;;;7.65;;
50781;SDS011;36749;37.428;-121.972;2022-08-04T15:47:10;21.67;;;7.65;;
50781;SDS011;36749;37.428;-121.972;2022-08-04T15:49:29;22.50;;;6.88;;
50781;SDS011;36749;37.428;-121.972;2022-08-04T15:52:05;18.27;;;6.60;;
50781;SDS011;36749;37.428;-121.972;2022-08-04T15:54:33;21.95;;;8.20;;
50781;SDS011;36749;37.428;-121.972;2022-08-04T15:57:01;22.70;;;6.75;;
50781;SDS011;36749;37.428;-121.972;2022-08-04T15:59:54;24.83;;;8.20;;
50781;SDS011;36749;37.428;-121.972;2022-08-04T16:07:51;25.23;;;8.32;;
50781;SDS011;36749;37.428;-121.972;2022-08-04T16:13:14;19.08;;;6.95;;
50781;SDS011;36749;37.428;-121.972;2022-08-04T16:15:45;19.95;;;7.10;;
50781;SDS011;36749;37.428;-121.972;2022-08-04T16:20:58;20.48;;;7.70;;
50781;SDS011;36749;37.428;-121.972;2022-08-04T16:26:40;23.23;;;7.57;;
50781;SDS011;36749;37.428;-121.972;2022-08-04T16:29:48;23.02;;;8.55;;
50781;SDS011;36749;37.428;-121.972;2022-08-04T16:37:10;21.08;;;7.68;;
50781;SDS011;36749;37.428;-121.972;2022-08-04T16:39:38;20.80;;;7.45;;
50781;SDS011;36749;37.428;-121.972;2022-08-04T16:42:37;17.98;;;7.28;;
50781;SDS011;36749;37.428;-121.972;2022-08-04T16:50:21;24.30;;;7.90;;
50781;SDS011;36749;37.428;-121.972;2022-08-04T16:52:50;26.30;;;8.60;;
50781;SDS011;36749;37.428;-121.972;2022-08-04T16:55:18;25.73;;;8.23;;
50781;SDS011;36749;37.428;-121.972;2022-08-04T16:57:49;18.95;;;7.13;;
50781;SDS011;36749;37.428;-121.972;2022-08-04T17:00:33;17.33;;;7.43;;
50781;SDS011;36749;37.428;-121.972;2022-08-04T17:03:01;25.30;;;7.78;;
50781;SDS011;36749;37.428;-121.972;2022-08-04T17:05:29;25.58;;;8.52;;
50781;SDS011;36749;37.428;-121.972;2022-08-04T17:07:55;25.48;;;8.10;;
50781;SDS011;36749;37.428;-121.972;2022-08-04T17:10:43;20.17;;;7.28;;
50781;SDS011;36749;37.428;-121.972;2022-08-04T17:13:22;25.30;;;9.25;;
50781;SDS011;36749;37.428;-121.972;2022-08-04T17:15:59;24.05;;;8.57;;
50781;SDS011;36749;37.428;-121.972;2022-08-04T17:18:28;19.63;;;8.15;;
50781;SDS011;36749;37.428;-121.972;2022-08-04T17:21:00;25.08;;;7.30;;
50781;SDS011;36749;37.428;-121.972;2022-08-04T17:23:30;17.15;;;7.60;;
50781;SDS011;36749;37.428;-121.972;2022-08-04T17:25:59;22.85;;;8.32;;
50781;SDS011;36749;37.428;-121.972;2022-08-04T17:28:28;26.05;;;10.00;;
50781;SDS011;36749;37.428;-121.972;2022-08-04T17:30:55;22.33;;;8.30;;
50781;SDS011;36749;37.428;-121.972;2022-08-04T17:33:23;23.98;;;8.75;;
50781;SDS011;36749;37.428;-121.972;2022-08-04T17:35:50;26.60;;;8.23;;
50781;SDS011;36749;37.428;-121.972;2022-08-04T17:38:17;24.58;;;7.70;;
50781;SDS011;36749;37.428;-121.972;2022-08-04T17:40:57;27.65;;;9.20;;
50781;SDS011;36749;37.428;-121.972;2022-08-04T17:43:35;24.00;;;7.30;;
50781;SDS011;36749;37.428;-121.972;2022-08-04T17:46:33;19.00;;;7.75;;
50781;SDS011;36749;37.428;-121.972;2022-08-04T17:54:34;16.48;;;7.20;;
50781;SDS011;36749;37.428;-121.972;2022-08-04T17:57:15;27.92;;;7.32;;
50781;SDS011;36749;37.428;-121.972;2022-08-04T17:59:43;20.42;;;8.13;;
50781;SDS011;36749;37.428;-121.972;2022-08-04T18:02:10;19.40;;;6.75;;
50781;SDS011;36749;37.428;-121.972;2022-08-04T18:04:38;20.50;;;7.25;;
50781;SDS011;36749;37.428;-121.972;2022-08-04T18:09:49;18.60;;;6.63;;
50781;SDS011;36749;37.428;-121.972;2022-08-04T18:12:23;22.63;;;7.25;;
50781;SDS011;36749;37.428;-121.972;2022-08-04T18:14:50;20.90;;;7.00;;
50781;SDS011;36749;37.428;-121.972;2022-08-04T18:17:30;23.17;;;8.10;;
50781;SDS011;36749;37.428;-121.972;2022-08-04T18:19:57;19.85;;;6.57;;
50781;SDS011;36749;37.428;-121.972;2022-08-04T18:22:24;16.20;;;6.68;;
50781;SDS011;36749;37.428;-121.972;2022-08-04T18:24:51;18.92;;;7.75;;
50781;SDS011;36749;37.428;-121.972;2022-08-04T18:27:18;19.60;;;6.80;;
50781;SDS011;36749;37.428;-121.972;2022-08-04T18:29:47;23.40;;;7.80;;
50781;SDS011;36749;37.428;-121.972;2022-08-04T18:32:14;15.15;;;6.00;;
50781;SDS011;36749;37.428;-121.972;2022-08-04T18:34:40;21.63;;;6.85;;
50781;SDS011;36749;37.428;-121.972;2022-08-04T18:37:06;19.45;;;7.22;;
50781;SDS011;36749;37.428;-121.972;2022-08-04T18:39:32;22.50;;;7.07;;
50781;SDS011;36749;37.428;-121.972;2022-08-04T18:41:59;20.13;;;6.40;;
50781;SDS011;36749;37.428;-121.972;2022-08-04T18:44:26;22.63;;;6.85;;
50781;SDS011;36749;37.428;-121.972;2022-08-04T18:46:54;20.83;;;7.30;;